sensor_id;sensor_type;location;lat;lon;timestamp;temperature;humidity
64396;DHT22;50717;53.360;6.290;2022-10-16T00:01:24;12.30;99.90
64396;DHT22;50717;53.360;6.290;2022-10-16T00:03:50;12.20;99.90
64396;DHT22;50717;53.360;6.290;2022-10-16T00:06:18;12.60;99.90
64396;DHT22;50717;53.360;6.290;2022-10-16T00:08:44;12.30;99.90
64396;DHT22;50717;53.360;6.290;2022-10-16T00:11:14;12.20;99.90
64396;DHT22;50717;53.360;6.290;2022-10-16T00:13:41;12.10;99.90
64396;DHT22;50717;53.360;6.290;2022-10-16T00:16:07;11.90;99.90
64396;DHT22;50717;53.360;6.290;2022-10-16T00:18:33;12.30;99.90
64396;DHT22;50717;53.360;6.290;2022-10-16T00:21:12;11.80;99.90
64396;DHT22;50717;53.360;6.290;2022-10-16T00:23:38;11.80;99.90
64396;DHT22;50717;53.360;6.290;2022-10-16T00:26:08;12.00;99.90
64396;DHT22;50717;53.360;6.290;2022-10-16T00:28:35;12.50;99.90
64396;DHT22;50717;53.360;6.290;2022-10-16T00:31:11;11.90;99.90
64396;DHT22;50717;53.360;6.290;2022-10-16T00:33:38;12.10;99.90
64396;DHT22;50717;53.360;6.290;2022-10-16T00:36:05;11.80;99.90
64396;DHT22;50717;53.360;6.290;2022-10-16T00:38:32;11.90;99.90
64396;DHT22;50717;53.360;6.290;2022-10-16T00:40:58;12.00;99.90
64396;DHT22;50717;53.360;6.290;2022-10-16T00:46:02;12.00;99.90
64396;DHT22;50717;53.360;6.290;2022-10-16T00:48:29;13.50;99.90
64396;DHT22;50717;53.360;6.290;2022-10-16T00:50:55;12.10;99.90
64396;DHT22;50717;53.360;6.290;2022-10-16T00:53:21;12.20;99.90
64396;DHT22;50717;53.360;6.290;2022-10-16T00:55:47;12.10;99.90
64396;DHT22;50717;53.360;6.290;2022-10-16T00:58:12;12.50;99.90
64396;DHT22;50717;53.360;6.290;2022-10-16T01:00:38;11.70;99.90
64396;DHT22;50717;53.360;6.290;2022-10-16T01:03:26;11.70;99.90
64396;DHT22;50717;53.360;6.290;2022-10-16T01:06:15;12.60;99.90
64396;DHT22;50717;53.360;6.290;2022-10-16T01:09:24;11.50;99.90
64396;DHT22;50717;53.360;6.290;2022-10-16T01:12:01;11.60;99.90
64396;DHT22;50717;53.360;6.290;2022-10-16T01:14:54;11.70;99.90
64396;DHT22;50717;53.360;6.290;2022-10-16T01:17:43;11.50;99.90
64396;DHT22;50717;53.360;6.290;2022-10-16T01:28:26;11.30;99.90
64396;DHT22;50717;53.360;6.290;2022-10-16T01:30:58;11.60;99.90
64396;DHT22;50717;53.360;6.290;2022-10-16T01:33:42;11.80;99.90
64396;DHT22;50717;53.360;6.290;2022-10-16T01:36:28;11.60;99.90
64396;DHT22;50717;53.360;6.290;2022-10-16T01:38:59;12.00;99.90
64396;DHT22;50717;53.360;6.290;2022-10-16T01:41:33;12.60;99.90
64396;DHT22;50717;53.360;6.290;2022-10-16T01:44:23;11.80;99.90
64396;DHT22;50717;53.360;6.290;2022-10-16T01:46:52;12.90;99.90
64396;DHT22;50717;53.360;6.290;2022-10-16T01:49:21;12.10;99.90
64396;DHT22;50717;53.360;6.290;2022-10-16T01:51:50;12.00;99.90
64396;DHT22;50717;53.360;6.290;2022-10-16T01:54:18;12.20;99.90
64396;DHT22;50717;53.360;6.290;2022-10-16T01:56:46;12.30;99.90
64396;DHT22;50717;53.360;6.290;2022-10-16T01:59:16;12.40;99.90
64396;DHT22;50717;53.360;6.290;2022-10-16T02:01:47;12.20;99.90
64396;DHT22;50717;53.360;6.290;2022-10-16T02:04:33;12.60;99.90
64396;DHT22;50717;53.360;6.290;2022-10-16T02:07:00;12.10;99.90
64396;DHT22;50717;53.360;6.290;2022-10-16T02:09:26;12.30;99.90
64396;DHT22;50717;53.360;6.290;2022-10-16T02:11:54;12.70;99.90
64396;DHT22;50717;53.360;6.290;2022-10-16T02:14:21;12.30;99.90
64396;DHT22;50717;53.360;6.290;2022-10-16T02:16:47;12.70;99.90
64396;DHT22;50717;53.360;6.290;2022-10-16T02:19:15;12.80;99.90
64396;DHT22;50717;53.360;6.290;2022-10-16T02:21:47;12.40;99.90
64396;DHT22;50717;53.360;6.290;2022-10-16T02:27:46;12.50;99.90
64396;DHT22;50717;53.360;6.290;2022-10-16T02:30:38;12.40;99.90
64396;DHT22;50717;53.360;6.290;2022-10-16T02:33:07;12.10;99.90
64396;DHT22;50717;53.360;6.290;2022-10-16T02:35:35;12.50;99.90
64396;DHT22;50717;53.360;6.290;2022-10-16T02:38:01;12.70;99.90
64396;DHT22;50717;53.360;6.290;2022-10-16T02:40:27;12.20;99.90
64396;DHT22;50717;53.360;6.290;2022-10-16T02:42:54;12.40;99.90
64396;DHT22;50717;53.360;6.290;2022-10-16T02:45:21;12.60;99.90
64396;DHT22;50717;53.360;6.290;2022-10-16T02:47:47;12.30;99.90
64396;DHT22;50717;53.360;6.290;2022-10-16T02:50:13;10.50;99.90
64396;DHT22;50717;53.360;6.290;2022-10-16T02:52:38;12.10;99.90
64396;DHT22;50717;53.360;6.290;2022-10-16T02:55:05;12.50;99.90
64396;DHT22;50717;53.360;6.290;2022-10-16T02:57:30;12.30;99.90
64396;DHT22;50717;53.360;6.290;2022-10-16T02:59:57;12.10;99.90
64396;DHT22;50717;53.360;6.290;2022-10-16T03:02:23;12.20;99.90
64396;DHT22;50717;53.360;6.290;2022-10-16T03:04:49;12.10;99.90
64396;DHT22;50717;53.360;6.290;2022-10-16T03:07:15;12.70;99.90
64396;DHT22;50717;53.360;6.290;2022-10-16T03:09:41;12.20;99.90
64396;DHT22;50717;53.360;6.290;2022-10-16T03:12:07;12.30;99.90
64396;DHT22;50717;53.360;6.290;2022-10-16T03:14:33;12.10;99.90
64396;DHT22;50717;53.360;6.290;2022-10-16T03:16:58;12.30;99.90
64396;DHT22;50717;53.360;6.290;2022-10-16T03:19:24;12.30;99.90
64396;DHT22;50717;53.360;6.290;2022-10-16T03:21:50;11.80;99.90
64396;DHT22;50717;53.360;6.290;2022-10-16T03:24:15;12.00;99.90
64396;DHT22;50717;53.360;6.290;2022-10-16T03:26:41;11.80;99.90
64396;DHT22;50717;53.360;6.290;2022-10-16T03:29:07;12.30;99.90
64396;DHT22;50717;53.360;6.290;2022-10-16T03:31:32;12.00;99.90
64396;DHT22;50717;53.360;6.290;2022-10-16T03:33:58;11.90;99.90
64396;DHT22;50717;53.360;6.290;2022-10-16T03:36:24;11.90;99.90
64396;DHT22;50717;53.360;6.290;2022-10-16T03:38:49;11.80;99.90
64396;DHT22;50717;53.360;6.290;2022-10-16T03:41:15;11.50;99.90
64396;DHT22;50717;53.360;6.290;2022-10-16T03:43:41;11.90;99.90
64396;DHT22;50717;53.360;6.290;2022-10-16T03:46:07;11.80;99.90
64396;DHT22;50717;53.360;6.290;2022-10-16T03:48:32;11.60;99.90
64396;DHT22;50717;53.360;6.290;2022-10-16T03:50:58;11.50;99.90
64396;DHT22;50717;53.360;6.290;2022-10-16T03:53:24;11.30;99.90
64396;DHT22;50717;53.360;6.290;2022-10-16T03:55:50;11.00;99.90
64396;DHT22;50717;53.360;6.290;2022-10-16T03:58:16;11.70;99.90
64396;DHT22;50717;53.360;6.290;2022-10-16T04:00:42;11.40;99.90
64396;DHT22;50717;53.360;6.290;2022-10-16T04:03:08;11.30;99.90
64396;DHT22;50717;53.360;6.290;2022-10-16T04:05:34;12.00;99.90
64396;DHT22;50717;53.360;6.290;2022-10-16T04:08:00;11.30;99.90
64396;DHT22;50717;53.360;6.290;2022-10-16T04:10:25;11.40;99.90
64396;DHT22;50717;53.360;6.290;2022-10-16T04:12:51;11.70;99.90
64396;DHT22;50717;53.360;6.290;2022-10-16T04:15:17;11.80;99.90
64396;DHT22;50717;53.360;6.290;2022-10-16T04:17:42;11.80;99.90
64396;DHT22;50717;53.360;6.290;2022-10-16T04:20:08;11.80;99.90
64396;DHT22;50717;53.360;6.290;2022-10-16T04:22:34;11.70;99.90
64396;DHT22;50717;53.360;6.290;2022-10-16T04:25:00;11.80;99.90
64396;DHT22;50717;53.360;6.290;2022-10-16T04:27:25;11.80;99.90
64396;DHT22;50717;53.360;6.290;2022-10-16T04:29:51;11.60;99.90
64396;DHT22;50717;53.360;6.290;2022-10-16T04:32:17;12.10;99.90
64396;DHT22;50717;53.360;6.290;2022-10-16T04:34:42;12.20;99.90
64396;DHT22;50717;53.360;6.290;2022-10-16T04:37:08;12.30;99.90
64396;DHT22;50717;53.360;6.290;2022-10-16T04:39:34;12.10;99.90
64396;DHT22;50717;53.360;6.290;2022-10-16T04:42:00;12.30;99.90
64396;DHT22;50717;53.360;6.290;2022-10-16T04:44:25;11.90;99.90
64396;DHT22;50717;53.360;6.290;2022-10-16T04:46:51;12.40;99.90
64396;DHT22;50717;53.360;6.290;2022-10-16T04:49:17;12.30;99.90
64396;DHT22;50717;53.360;6.290;2022-10-16T04:51:42;12.30;99.90
64396;DHT22;50717;53.360;6.290;2022-10-16T04:54:09;13.00;99.90
64396;DHT22;50717;53.360;6.290;2022-10-16T04:56:35;12.10;99.90
64396;DHT22;50717;53.360;6.290;2022-10-16T04:59:08;12.40;99.90
64396;DHT22;50717;53.360;6.290;2022-10-16T05:01:34;12.20;99.90
64396;DHT22;50717;53.360;6.290;2022-10-16T05:04:00;12.50;99.90
64396;DHT22;50717;53.360;6.290;2022-10-16T05:06:25;12.10;99.90
64396;DHT22;50717;53.360;6.290;2022-10-16T05:08:51;12.30;99.90
64396;DHT22;50717;53.360;6.290;2022-10-16T05:11:16;13.00;99.90
64396;DHT22;50717;53.360;6.290;2022-10-16T05:13:42;12.10;99.90
64396;DHT22;50717;53.360;6.290;2022-10-16T05:16:08;12.30;99.90
64396;DHT22;50717;53.360;6.290;2022-10-16T05:18:33;12.20;99.90
64396;DHT22;50717;53.360;6.290;2022-10-16T05:20:59;12.20;99.90
64396;DHT22;50717;53.360;6.290;2022-10-16T05:23:25;12.20;99.90
64396;DHT22;50717;53.360;6.290;2022-10-16T05:25:57;12.30;99.90
64396;DHT22;50717;53.360;6.290;2022-10-16T05:28:25;12.30;99.90
64396;DHT22;50717;53.360;6.290;2022-10-16T05:30:51;12.00;99.90
64396;DHT22;50717;53.360;6.290;2022-10-16T05:33:17;12.30;99.90
64396;DHT22;50717;53.360;6.290;2022-10-16T05:35:44;11.80;99.90
64396;DHT22;50717;53.360;6.290;2022-10-16T05:38:10;11.80;99.90
64396;DHT22;50717;53.360;6.290;2022-10-16T05:40:36;12.10;99.90
64396;DHT22;50717;53.360;6.290;2022-10-16T05:43:01;12.60;99.90
64396;DHT22;50717;53.360;6.290;2022-10-16T05:45:27;11.80;99.90
64396;DHT22;50717;53.360;6.290;2022-10-16T05:47:53;12.20;99.90
64396;DHT22;50717;53.360;6.290;2022-10-16T05:50:18;12.20;99.90
64396;DHT22;50717;53.360;6.290;2022-10-16T05:52:44;12.30;99.90
64396;DHT22;50717;53.360;6.290;2022-10-16T05:55:10;11.90;99.90
64396;DHT22;50717;53.360;6.290;2022-10-16T05:57:35;11.80;99.90
64396;DHT22;50717;53.360;6.290;2022-10-16T06:00:01;12.10;99.90
64396;DHT22;50717;53.360;6.290;2022-10-16T06:02:27;12.00;99.90
64396;DHT22;50717;53.360;6.290;2022-10-16T06:04:52;12.50;99.90
64396;DHT22;50717;53.360;6.290;2022-10-16T06:07:22;11.60;99.90
64396;DHT22;50717;53.360;6.290;2022-10-16T06:09:52;11.80;99.90
64396;DHT22;50717;53.360;6.290;2022-10-16T06:12:18;12.10;99.90
64396;DHT22;50717;53.360;6.290;2022-10-16T06:14:45;11.90;99.90
64396;DHT22;50717;53.360;6.290;2022-10-16T06:17:12;11.60;99.90
64396;DHT22;50717;53.360;6.290;2022-10-16T06:19:38;12.20;99.90
64396;DHT22;50717;53.360;6.290;2022-10-16T06:22:04;12.00;99.90
64396;DHT22;50717;53.360;6.290;2022-10-16T06:24:30;11.90;99.90
64396;DHT22;50717;53.360;6.290;2022-10-16T06:26:55;11.90;99.90
64396;DHT22;50717;53.360;6.290;2022-10-16T06:29:21;11.80;99.90
64396;DHT22;50717;53.360;6.290;2022-10-16T06:31:47;12.30;99.90
64396;DHT22;50717;53.360;6.290;2022-10-16T06:34:13;12.00;99.90
64396;DHT22;50717;53.360;6.290;2022-10-16T06:36:39;11.90;99.90
64396;DHT22;50717;53.360;6.290;2022-10-16T06:39:05;11.90;99.90
64396;DHT22;50717;53.360;6.290;2022-10-16T06:41:33;12.00;99.90
64396;DHT22;50717;53.360;6.290;2022-10-16T06:43:59;11.00;99.90
64396;DHT22;50717;53.360;6.290;2022-10-16T06:46:25;11.90;99.90
64396;DHT22;50717;53.360;6.290;2022-10-16T06:48:51;12.20;99.90
64396;DHT22;50717;53.360;6.290;2022-10-16T06:51:19;11.90;99.90
64396;DHT22;50717;53.360;6.290;2022-10-16T06:53:47;12.20;99.90
64396;DHT22;50717;53.360;6.290;2022-10-16T06:56:19;12.10;99.90
64396;DHT22;50717;53.360;6.290;2022-10-16T06:58:45;12.30;99.90
64396;DHT22;50717;53.360;6.290;2022-10-16T07:01:12;12.10;99.90
64396;DHT22;50717;53.360;6.290;2022-10-16T07:03:40;12.40;99.90
64396;DHT22;50717;53.360;6.290;2022-10-16T07:06:08;12.30;99.90
64396;DHT22;50717;53.360;6.290;2022-10-16T07:08:36;12.10;99.90
64396;DHT22;50717;53.360;6.290;2022-10-16T07:11:11;12.40;99.90
64396;DHT22;50717;53.360;6.290;2022-10-16T07:13:38;12.10;99.90
64396;DHT22;50717;53.360;6.290;2022-10-16T07:16:08;12.20;99.90
64396;DHT22;50717;53.360;6.290;2022-10-16T07:18:34;12.00;99.90
64396;DHT22;50717;53.360;6.290;2022-10-16T07:21:17;12.00;99.90
64396;DHT22;50717;53.360;6.290;2022-10-16T07:23:43;11.80;99.90
64396;DHT22;50717;53.360;6.290;2022-10-16T07:26:10;13.40;99.90
64396;DHT22;50717;53.360;6.290;2022-10-16T07:28:36;12.20;99.90
64396;DHT22;50717;53.360;6.290;2022-10-16T07:31:04;12.20;99.90
64396;DHT22;50717;53.360;6.290;2022-10-16T07:33:31;12.10;99.90
64396;DHT22;50717;53.360;6.290;2022-10-16T07:35:56;12.50;99.90
64396;DHT22;50717;53.360;6.290;2022-10-16T07:38:23;12.20;99.90
64396;DHT22;50717;53.360;6.290;2022-10-16T07:40:56;12.60;99.90
64396;DHT22;50717;53.360;6.290;2022-10-16T07:43:21;13.40;99.90
64396;DHT22;50717;53.360;6.290;2022-10-16T07:45:48;12.70;99.90
64396;DHT22;50717;53.360;6.290;2022-10-16T07:48:15;12.40;99.90
64396;DHT22;50717;53.360;6.290;2022-10-16T07:50:41;12.80;99.90
64396;DHT22;50717;53.360;6.290;2022-10-16T07:53:07;12.70;99.90
64396;DHT22;50717;53.360;6.290;2022-10-16T07:55:33;12.70;99.90
64396;DHT22;50717;53.360;6.290;2022-10-16T07:57:58;12.80;99.90
64396;DHT22;50717;53.360;6.290;2022-10-16T08:00:24;13.10;99.90
64396;DHT22;50717;53.360;6.290;2022-10-16T08:02:50;13.10;99.90
64396;DHT22;50717;53.360;6.290;2022-10-16T08:05:15;13.20;99.90
64396;DHT22;50717;53.360;6.290;2022-10-16T08:07:41;13.00;99.90
64396;DHT22;50717;53.360;6.290;2022-10-16T08:10:14;13.40;99.90
64396;DHT22;50717;53.360;6.290;2022-10-16T08:12:41;13.40;99.90
64396;DHT22;50717;53.360;6.290;2022-10-16T08:15:07;13.50;99.90
64396;DHT22;50717;53.360;6.290;2022-10-16T08:17:33;13.90;99.90
64396;DHT22;50717;53.360;6.290;2022-10-16T08:19:58;13.90;99.90
64396;DHT22;50717;53.360;6.290;2022-10-16T08:22:24;13.60;99.90
64396;DHT22;50717;53.360;6.290;2022-10-16T08:24:50;13.40;99.90
64396;DHT22;50717;53.360;6.290;2022-10-16T08:27:15;13.60;99.90
64396;DHT22;50717;53.360;6.290;2022-10-16T08:29:41;13.80;99.90
64396;DHT22;50717;53.360;6.290;2022-10-16T08:32:07;13.70;99.90
64396;DHT22;50717;53.360;6.290;2022-10-16T08:34:32;13.40;99.90
64396;DHT22;50717;53.360;6.290;2022-10-16T08:36:58;13.80;99.90
64396;DHT22;50717;53.360;6.290;2022-10-16T08:39:24;13.80;99.90
64396;DHT22;50717;53.360;6.290;2022-10-16T08:47:21;14.00;99.90
64396;DHT22;50717;53.360;6.290;2022-10-16T08:50:00;14.40;99.90
64396;DHT22;50717;53.360;6.290;2022-10-16T08:52:33;14.00;99.90
64396;DHT22;50717;53.360;6.290;2022-10-16T08:55:01;14.10;99.90
64396;DHT22;50717;53.360;6.290;2022-10-16T08:57:27;13.80;99.90
64396;DHT22;50717;53.360;6.290;2022-10-16T08:59:54;14.10;99.90
64396;DHT22;50717;53.360;6.290;2022-10-16T09:10:28;14.50;99.90
64396;DHT22;50717;53.360;6.290;2022-10-16T09:13:19;14.60;99.90
64396;DHT22;50717;53.360;6.290;2022-10-16T09:16:24;14.30;99.90
64396;DHT22;50717;53.360;6.290;2022-10-16T09:19:09;14.50;99.90
64396;DHT22;50717;53.360;6.290;2022-10-16T09:21:44;14.60;99.90
64396;DHT22;50717;53.360;6.290;2022-10-16T09:24:14;15.00;99.90
64396;DHT22;50717;53.360;6.290;2022-10-16T09:26:40;15.00;99.90
64396;DHT22;50717;53.360;6.290;2022-10-16T09:29:06;15.10;99.90
64396;DHT22;50717;53.360;6.290;2022-10-16T09:31:32;15.00;99.90
64396;DHT22;50717;53.360;6.290;2022-10-16T09:34:03;15.20;99.90
64396;DHT22;50717;53.360;6.290;2022-10-16T09:36:39;14.70;99.90
64396;DHT22;50717;53.360;6.290;2022-10-16T09:39:09;15.30;99.90
64396;DHT22;50717;53.360;6.290;2022-10-16T09:41:37;15.20;99.90
64396;DHT22;50717;53.360;6.290;2022-10-16T09:44:12;15.30;99.90
64396;DHT22;50717;53.360;6.290;2022-10-16T09:46:41;15.20;99.90
64396;DHT22;50717;53.360;6.290;2022-10-16T09:49:24;15.20;99.90
64396;DHT22;50717;53.360;6.290;2022-10-16T09:51:50;15.10;99.90
64396;DHT22;50717;53.360;6.290;2022-10-16T09:54:20;15.70;99.90
64396;DHT22;50717;53.360;6.290;2022-10-16T09:56:47;15.60;99.90
64396;DHT22;50717;53.360;6.290;2022-10-16T09:59:19;15.70;99.90
64396;DHT22;50717;53.360;6.290;2022-10-16T10:01:49;16.00;99.90
64396;DHT22;50717;53.360;6.290;2022-10-16T10:04:19;15.60;99.90
64396;DHT22;50717;53.360;6.290;2022-10-16T10:06:47;16.10;99.90
64396;DHT22;50717;53.360;6.290;2022-10-16T10:09:20;16.30;99.90
64396;DHT22;50717;53.360;6.290;2022-10-16T10:12:02;15.60;99.90
64396;DHT22;50717;53.360;6.290;2022-10-16T10:14:39;15.90;99.90
64396;DHT22;50717;53.360;6.290;2022-10-16T10:19:48;15.70;99.90
64396;DHT22;50717;53.360;6.290;2022-10-16T10:25:16;15.50;99.90
64396;DHT22;50717;53.360;6.290;2022-10-16T10:31:09;15.80;99.90
64396;DHT22;50717;53.360;6.290;2022-10-16T10:36:37;16.20;99.90
64396;DHT22;50717;53.360;6.290;2022-10-16T10:39:28;15.80;99.90
64396;DHT22;50717;53.360;6.290;2022-10-16T10:47:35;15.70;99.90
64396;DHT22;50717;53.360;6.290;2022-10-16T10:52:56;15.60;99.90
64396;DHT22;50717;53.360;6.290;2022-10-16T10:58:08;15.60;99.90
64396;DHT22;50717;53.360;6.290;2022-10-16T11:05:54;16.00;99.90
64396;DHT22;50717;53.360;6.290;2022-10-16T11:08:53;16.10;99.90
64396;DHT22;50717;53.360;6.290;2022-10-16T11:11:46;16.00;99.90
64396;DHT22;50717;53.360;6.290;2022-10-16T11:14:25;16.00;99.90
64396;DHT22;50717;53.360;6.290;2022-10-16T11:17:02;16.00;99.90
64396;DHT22;50717;53.360;6.290;2022-10-16T11:22:25;15.70;99.90
64396;DHT22;50717;53.360;6.290;2022-10-16T11:30:22;15.80;99.90
64396;DHT22;50717;53.360;6.290;2022-10-16T11:44:06;16.20;99.90
64396;DHT22;50717;53.360;6.290;2022-10-16T11:46:38;16.10;99.90
64396;DHT22;50717;53.360;6.290;2022-10-16T11:49:23;16.00;99.90
64396;DHT22;50717;53.360;6.290;2022-10-16T11:52:07;15.80;99.90
64396;DHT22;50717;53.360;6.290;2022-10-16T11:55:16;15.60;99.90
64396;DHT22;50717;53.360;6.290;2022-10-16T11:57:51;16.00;99.90
64396;DHT22;50717;53.360;6.290;2022-10-16T12:00:28;15.70;99.90
64396;DHT22;50717;53.360;6.290;2022-10-16T12:02:58;16.30;99.90
64396;DHT22;50717;53.360;6.290;2022-10-16T12:05:50;15.80;99.90
64396;DHT22;50717;53.360;6.290;2022-10-16T12:08:18;16.00;99.90
64396;DHT22;50717;53.360;6.290;2022-10-16T12:10:46;15.90;99.90
64396;DHT22;50717;53.360;6.290;2022-10-16T12:13:39;16.00;99.90
64396;DHT22;50717;53.360;6.290;2022-10-16T12:16:26;16.30;99.90
64396;DHT22;50717;53.360;6.290;2022-10-16T12:19:10;16.00;99.90
64396;DHT22;50717;53.360;6.290;2022-10-16T12:21:36;16.10;99.90
64396;DHT22;50717;53.360;6.290;2022-10-16T12:24:03;16.30;99.90
64396;DHT22;50717;53.360;6.290;2022-10-16T12:26:32;16.30;99.90
64396;DHT22;50717;53.360;6.290;2022-10-16T12:32:01;16.50;99.90
64396;DHT22;50717;53.360;6.290;2022-10-16T12:34:31;16.30;99.90
64396;DHT22;50717;53.360;6.290;2022-10-16T12:37:31;16.60;99.90
64396;DHT22;50717;53.360;6.290;2022-10-16T12:39:55;16.60;99.90
64396;DHT22;50717;53.360;6.290;2022-10-16T12:44:47;16.90;99.90
64396;DHT22;50717;53.360;6.290;2022-10-16T12:49:55;17.20;99.90
64396;DHT22;50717;53.360;6.290;2022-10-16T12:52:47;17.00;99.90
64396;DHT22;50717;53.360;6.290;2022-10-16T12:55:17;17.10;99.90
64396;DHT22;50717;53.360;6.290;2022-10-16T13:01:03;17.20;99.90
64396;DHT22;50717;53.360;6.290;2022-10-16T13:09:39;16.70;99.90
64396;DHT22;50717;53.360;6.290;2022-10-16T13:12:28;17.00;99.90
64396;DHT22;50717;53.360;6.290;2022-10-16T13:17:45;17.10;99.90
64396;DHT22;50717;53.360;6.290;2022-10-16T13:27:59;17.40;99.90
64396;DHT22;50717;53.360;6.290;2022-10-16T13:30:30;17.10;99.90
64396;DHT22;50717;53.360;6.290;2022-10-16T13:33:02;16.70;99.90
64396;DHT22;50717;53.360;6.290;2022-10-16T13:35:34;16.60;99.90
64396;DHT22;50717;53.360;6.290;2022-10-16T13:41:13;16.00;99.90
64396;DHT22;50717;53.360;6.290;2022-10-16T13:43:50;16.00;99.90
64396;DHT22;50717;53.360;6.290;2022-10-16T13:46:22;15.70;99.90
64396;DHT22;50717;53.360;6.290;2022-10-16T13:49:02;15.70;99.90
64396;DHT22;50717;53.360;6.290;2022-10-16T13:51:29;15.60;99.90
64396;DHT22;50717;53.360;6.290;2022-10-16T13:53:56;15.50;99.90
64396;DHT22;50717;53.360;6.290;2022-10-16T13:56:25;15.40;99.90
64396;DHT22;50717;53.360;6.290;2022-10-16T13:59:04;15.70;99.90
64396;DHT22;50717;53.360;6.290;2022-10-16T14:01:48;15.30;99.90
64396;DHT22;50717;53.360;6.290;2022-10-16T14:04:15;15.60;99.90
64396;DHT22;50717;53.360;6.290;2022-10-16T14:06:43;15.90;99.90
64396;DHT22;50717;53.360;6.290;2022-10-16T14:09:29;15.90;99.90
64396;DHT22;50717;53.360;6.290;2022-10-16T14:12:06;16.00;99.90
64396;DHT22;50717;53.360;6.290;2022-10-16T14:14:40;15.90;99.90
64396;DHT22;50717;53.360;6.290;2022-10-16T14:17:06;15.60;99.90
64396;DHT22;50717;53.360;6.290;2022-10-16T14:19:38;15.80;99.90
64396;DHT22;50717;53.360;6.290;2022-10-16T14:22:04;15.50;99.90
64396;DHT22;50717;53.360;6.290;2022-10-16T14:24:41;15.30;99.90
64396;DHT22;50717;53.360;6.290;2022-10-16T14:27:30;15.60;99.90
64396;DHT22;50717;53.360;6.290;2022-10-16T14:30:13;15.70;99.90
64396;DHT22;50717;53.360;6.290;2022-10-16T14:32:41;15.80;99.90
64396;DHT22;50717;53.360;6.290;2022-10-16T14:35:25;15.80;99.90
64396;DHT22;50717;53.360;6.290;2022-10-16T14:37:55;15.50;99.90
64396;DHT22;50717;53.360;6.290;2022-10-16T14:40:24;15.50;99.90
64396;DHT22;50717;53.360;6.290;2022-10-16T14:42:51;15.10;99.90
64396;DHT22;50717;53.360;6.290;2022-10-16T14:45:26;15.50;99.90
64396;DHT22;50717;53.360;6.290;2022-10-16T14:47:58;15.20;99.90
64396;DHT22;50717;53.360;6.290;2022-10-16T14:50:24;15.40;99.90
64396;DHT22;50717;53.360;6.290;2022-10-16T14:52:50;15.50;99.90
64396;DHT22;50717;53.360;6.290;2022-10-16T14:55:17;15.10;99.90
64396;DHT22;50717;53.360;6.290;2022-10-16T14:57:44;15.20;99.90
64396;DHT22;50717;53.360;6.290;2022-10-16T15:00:24;15.20;99.90
64396;DHT22;50717;53.360;6.290;2022-10-16T15:02:50;15.40;99.90
64396;DHT22;50717;53.360;6.290;2022-10-16T15:05:17;14.70;99.90
64396;DHT22;50717;53.360;6.290;2022-10-16T15:07:44;14.80;99.90
64396;DHT22;50717;53.360;6.290;2022-10-16T15:10:15;15.10;99.90
64396;DHT22;50717;53.360;6.290;2022-10-16T15:12:41;15.00;99.90
64396;DHT22;50717;53.360;6.290;2022-10-16T15:15:49;14.90;99.90
64396;DHT22;50717;53.360;6.290;2022-10-16T15:17:56;14.70;99.90
64396;DHT22;50717;53.360;6.290;2022-10-16T15:20:24;14.40;99.90
64396;DHT22;50717;53.360;6.290;2022-10-16T15:22:50;14.40;99.90
64396;DHT22;50717;53.360;6.290;2022-10-16T15:25:37;14.40;99.90
64396;DHT22;50717;53.360;6.290;2022-10-16T15:28:03;14.30;99.90
64396;DHT22;50717;53.360;6.290;2022-10-16T15:30:29;14.40;99.90
64396;DHT22;50717;53.360;6.290;2022-10-16T15:32:55;14.50;99.90
64396;DHT22;50717;53.360;6.290;2022-10-16T15:35:21;14.30;99.90
64396;DHT22;50717;53.360;6.290;2022-10-16T15:37:47;14.40;99.90
64396;DHT22;50717;53.360;6.290;2022-10-16T15:40:13;14.40;99.90
64396;DHT22;50717;53.360;6.290;2022-10-16T15:42:39;14.50;99.90
64396;DHT22;50717;53.360;6.290;2022-10-16T15:45:05;14.40;99.90
64396;DHT22;50717;53.360;6.290;2022-10-16T15:47:31;14.20;99.90
64396;DHT22;50717;53.360;6.290;2022-10-16T15:49:57;14.60;99.90
64396;DHT22;50717;53.360;6.290;2022-10-16T15:52:23;13.90;99.90
64396;DHT22;50717;53.360;6.290;2022-10-16T15:54:48;14.10;99.90
64396;DHT22;50717;53.360;6.290;2022-10-16T15:57:14;13.90;99.90
64396;DHT22;50717;53.360;6.290;2022-10-16T15:59:40;13.60;99.90
64396;DHT22;50717;53.360;6.290;2022-10-16T16:02:05;14.00;99.90
64396;DHT22;50717;53.360;6.290;2022-10-16T16:04:31;14.20;99.90
64396;DHT22;50717;53.360;6.290;2022-10-16T16:06:57;14.00;99.90
64396;DHT22;50717;53.360;6.290;2022-10-16T16:09:22;13.60;99.90
64396;DHT22;50717;53.360;6.290;2022-10-16T16:11:49;13.80;99.90
64396;DHT22;50717;53.360;6.290;2022-10-16T16:14:15;13.60;99.90
64396;DHT22;50717;53.360;6.290;2022-10-16T16:16:41;13.70;99.90
64396;DHT22;50717;53.360;6.290;2022-10-16T16:19:07;13.50;99.90
64396;DHT22;50717;53.360;6.290;2022-10-16T16:21:34;13.50;99.90
64396;DHT22;50717;53.360;6.290;2022-10-16T16:23:59;13.40;99.90
64396;DHT22;50717;53.360;6.290;2022-10-16T16:26:29;12.90;99.90
64396;DHT22;50717;53.360;6.290;2022-10-16T16:28:59;13.40;99.90
64396;DHT22;50717;53.360;6.290;2022-10-16T16:31:26;13.20;99.90
64396;DHT22;50717;53.360;6.290;2022-10-16T16:33:52;12.90;99.90
64396;DHT22;50717;53.360;6.290;2022-10-16T16:36:18;12.90;99.90
64396;DHT22;50717;53.360;6.290;2022-10-16T16:38:45;12.80;99.90
64396;DHT22;50717;53.360;6.290;2022-10-16T16:41:16;12.60;99.90
64396;DHT22;50717;53.360;6.290;2022-10-16T16:43:42;13.00;99.90
64396;DHT22;50717;53.360;6.290;2022-10-16T16:46:08;12.90;99.90
64396;DHT22;50717;53.360;6.290;2022-10-16T16:48:34;12.90;99.90
64396;DHT22;50717;53.360;6.290;2022-10-16T16:51:13;12.80;99.90
64396;DHT22;50717;53.360;6.290;2022-10-16T16:53:44;12.90;99.90
64396;DHT22;50717;53.360;6.290;2022-10-16T16:56:10;12.50;99.90
64396;DHT22;50717;53.360;6.290;2022-10-16T16:58:36;12.90;99.90
64396;DHT22;50717;53.360;6.290;2022-10-16T17:01:02;12.70;99.90
64396;DHT22;50717;53.360;6.290;2022-10-16T17:03:29;12.60;99.90
64396;DHT22;50717;53.360;6.290;2022-10-16T17:06:05;12.80;99.90
64396;DHT22;50717;53.360;6.290;2022-10-16T17:08:31;12.60;99.90
64396;DHT22;50717;53.360;6.290;2022-10-16T17:10:57;12.70;99.90
64396;DHT22;50717;53.360;6.290;2022-10-16T17:13:28;12.60;99.90
64396;DHT22;50717;53.360;6.290;2022-10-16T17:15:54;12.50;99.90
64396;DHT22;50717;53.360;6.290;2022-10-16T17:18:21;13.50;99.90
64396;DHT22;50717;53.360;6.290;2022-10-16T17:20:48;12.60;99.90
64396;DHT22;50717;53.360;6.290;2022-10-16T17:23:15;12.30;99.90
64396;DHT22;50717;53.360;6.290;2022-10-16T17:25:41;12.40;99.90
64396;DHT22;50717;53.360;6.290;2022-10-16T17:28:08;12.60;99.90
64396;DHT22;50717;53.360;6.290;2022-10-16T17:30:36;12.30;99.90
64396;DHT22;50717;53.360;6.290;2022-10-16T17:33:04;12.30;99.90